CheckWX is a tool to help pilots better visualize weather data.  It is not intended as a substitute for an official pre-flight weather briefing.

12:54:25 UTC

EGGD TAF
Bristol International Airport
Bristol, United Kingdom
TAF EGGD 171059Z 1712/1812 20012KT 9999 FEW012 SCT035 PROB30 TEMPO 1715/1722 7000 SHRA BKN012 BECMG 1716/1719 VRB05KT BECMG 1801/1804 6000 PROB30 TEMPO 1802/1806 3000 BR BKN002 BECMG 1804/1807 9999 PROB40 TEMPO 1811/1812 7000 RA SHRA BKN014

Jun-17@
12:00 UTC

Jun-17 @ 12:00 UTC

Jun-17@
16:00 UTC

Jun-17 @ 16:00 UTC

TAF EGGD 171059Z 1712/1812 20012KT 9999 FEW012 SCT035
Wind
  • 200° at 12 KTS
Cloud Levels
  • Few at 1,200' AGL
  • Scattered at 3,500' AGL

Jun-17@
15:00 UTC

Jun-17 @ 15:00 UTC

Jun-17@
22:00 UTC

Jun-17 @ 22:00 UTC

PROB30 TEMPO 1715/1722 7000 SHRA BKN012

Temporary - 30% Likelihood

Temporary - 30% Likelihood during this time.

Conditions
Rain
Cloud Levels
  • Broken at 1,200' AGL

Jun-17@
16:00 UTC

Jun-17 @ 16:00 UTC

Jun-18@
01:00 UTC

Jun-18 @ 01:00 UTC

BECMG 1716/1719 VRB05KT

Becoming

Becoming Conditions expected by Mon, Jun 17, 2019 @ 19:00 UTC

Wind
  • Variable at 5 KTS
Cloud Levels
  • Few at 1,200' AGL
  • Scattered at 3,500' AGL

Jun-18@
01:00 UTC

Jun-18 @ 01:00 UTC

Jun-18@
04:00 UTC

Jun-18 @ 04:00 UTC

BECMG 1801/1804 6000

Becoming

Becoming Conditions expected by Tue, Jun 18, 2019 @ 04:00 UTC

Wind
  • Variable at 5 KTS
Cloud Levels
  • Few at 1,200' AGL
  • Scattered at 3,500' AGL

Jun-18@
02:00 UTC

Jun-18 @ 02:00 UTC

Jun-18@
06:00 UTC

Jun-18 @ 06:00 UTC

PROB30 TEMPO 1802/1806 3000 BR BKN002

Temporary - 30% Likelihood

Temporary - 30% Likelihood during this time.

Conditions
Mist
Cloud Levels
  • Broken at 200' AGL

Jun-18@
04:00 UTC

Jun-18 @ 04:00 UTC

Jun-18@
12:00 UTC

Jun-18 @ 12:00 UTC

BECMG 1804/1807 9999

Becoming

Becoming Conditions expected by Tue, Jun 18, 2019 @ 07:00 UTC

Wind
  • Variable at 5 KTS
Cloud Levels
  • Few at 1,200' AGL
  • Scattered at 3,500' AGL

Jun-18@
11:00 UTC

Jun-18 @ 11:00 UTC

Jun-18@
12:00 UTC

Jun-18 @ 12:00 UTC

PROB40 TEMPO 1811/1812 7000 RA SHRA BKN014

Temporary - 40% Likelihood

Temporary - 40% Likelihood during this time.

Conditions
Rain, Rain
Cloud Levels
  • Broken at 1,400' AGL